createdAt,value
2019-05-20T01:44:23.606Z,90.20
2019-05-20T01:46:53.565Z,91.10
2019-05-20T01:49:23.582Z,91.00
2019-05-20T01:51:53.558Z,91.10
2019-05-20T01:54:23.567Z,90.70
2019-05-20T01:56:53.533Z,90.40
2019-05-20T01:59:23.533Z,90.40
2019-05-20T02:01:53.498Z,90.90
2019-05-20T02:04:23.490Z,91.40
2019-05-20T02:06:53.467Z,90.80
2019-05-20T02:09:23.464Z,91.00
2019-05-20T02:11:53.489Z,91.70
2019-05-20T02:14:39.987Z,92.40
2019-05-20T02:17:10.043Z,92.50
2019-05-20T02:19:40.014Z,92.30
2019-05-20T02:22:10.010Z,92.50
2019-05-20T02:24:39.973Z,92.50
2019-05-20T02:27:10.962Z,92.20
2019-05-20T02:29:40.971Z,92.00
2019-05-20T02:32:10.931Z,91.80
2019-05-20T02:34:40.935Z,91.70
2019-05-20T02:37:10.901Z,91.90
2019-05-20T02:39:40.929Z,92.20
2019-05-20T02:42:11.977Z,91.80
2019-05-20T02:44:42.002Z,91.90
2019-05-20T02:47:12.040Z,91.90
2019-05-20T02:49:42.021Z,92.30
2019-05-20T02:52:12.035Z,92.70
2019-05-20T02:54:41.998Z,92.30
2019-05-20T02:57:11.987Z,92.10
2019-05-20T02:59:41.993Z,92.40
2019-05-20T03:02:11.959Z,92.40
2019-05-20T03:04:41.967Z,92.20
2019-05-20T03:07:11.954Z,92.60
2019-05-20T03:09:41.924Z,93.00
2019-05-20T03:12:11.900Z,92.60
2019-05-20T03:14:41.866Z,92.40
2019-05-20T03:17:11.903Z,92.20
2019-05-20T03:19:41.871Z,92.10
2019-05-20T03:22:11.852Z,92.70
2019-05-20T03:24:41.850Z,92.50
2019-05-20T03:27:11.840Z,92.40
2019-05-20T03:29:41.814Z,92.30
2019-05-20T03:32:11.804Z,92.30
2019-05-20T03:34:48.663Z,92.80
2019-05-20T03:37:13.358Z,92.70
2019-05-20T03:39:43.327Z,93.30
2019-05-20T03:42:13.328Z,93.10
2019-05-20T03:44:43.302Z,93.40
2019-05-20T03:47:13.296Z,93.40
2019-05-20T03:49:43.302Z,93.20
2019-05-20T03:52:13.285Z,93.20
2019-05-20T03:54:43.278Z,93.40
2019-05-20T03:57:13.251Z,93.80
2019-05-20T03:59:43.306Z,93.10
2019-05-20T04:02:13.268Z,93.30
2019-05-20T04:05:00.909Z,93.50
2019-05-20T04:07:14.874Z,93.00
2019-05-20T04:09:44.844Z,92.90
2019-05-20T04:12:14.828Z,92.90
2019-05-20T04:14:44.790Z,93.00
2019-05-20T04:17:14.787Z,92.80
2019-05-20T04:19:44.757Z,92.90
2019-05-20T04:22:14.750Z,92.80
2019-05-20T04:24:45.888Z,92.80
2019-05-20T04:27:15.849Z,92.80
2019-05-20T04:29:45.864Z,92.30
2019-05-20T04:32:15.816Z,92.50
2019-05-20T04:34:45.873Z,92.30
2019-05-20T04:37:15.842Z,92.70
2019-05-20T04:39:45.917Z,92.50
2019-05-20T04:42:15.864Z,92.50
2019-05-20T04:44:45.849Z,92.40
2019-05-20T04:47:15.901Z,92.60
2019-05-20T04:49:45.885Z,92.60
2019-05-20T04:52:15.859Z,92.40
2019-05-20T04:54:45.861Z,92.40
2019-05-20T04:57:16.294Z,92.50
2019-05-20T04:59:46.294Z,92.30
2019-05-20T05:02:16.259Z,92.50
2019-05-20T05:04:46.270Z,92.50
2019-05-20T05:07:16.408Z,92.40
2019-05-20T05:09:46.397Z,92.20
2019-05-20T05:12:16.352Z,92.30
2019-05-20T05:14:46.364Z,92.00
2019-05-20T05:17:16.336Z,92.00
2019-05-20T05:19:46.319Z,92.50
2019-05-20T05:22:16.305Z,92.00
2019-05-20T05:24:46.263Z,91.80
2019-05-20T05:27:16.315Z,91.60
2019-05-20T05:29:46.309Z,91.70
2019-05-20T05:32:17.909Z,91.80
2019-05-20T05:34:47.897Z,91.80
2019-05-20T05:37:17.874Z,91.60
2019-05-20T05:39:47.859Z,91.60
2019-05-20T05:42:17.824Z,91.40
2019-05-20T05:44:47.806Z,92.00
2019-05-20T05:47:17.769Z,91.20
2019-05-20T05:49:47.796Z,91.50
2019-05-20T05:52:17.784Z,90.90
2019-05-20T05:54:48.810Z,91.10
2019-05-20T05:57:18.795Z,91.10
2019-05-20T05:59:48.776Z,90.80
2019-05-20T06:02:18.760Z,90.80
2019-05-20T06:04:48.748Z,90.90
2019-05-20T06:07:18.711Z,90.70
2019-05-20T06:09:48.730Z,90.40
2019-05-20T06:12:18.723Z,90.60
2019-05-20T06:14:48.698Z,90.30
2019-05-20T06:17:18.679Z,90.40
2019-05-20T06:19:48.672Z,90.60
2019-05-20T06:22:18.680Z,90.50
2019-05-20T06:24:48.775Z,90.20
2019-05-20T06:27:18.780Z,90.50
2019-05-20T06:29:48.800Z,90.00
2019-05-20T06:32:18.882Z,89.50
2019-05-20T06:34:48.860Z,89.60
2019-05-20T06:37:20.805Z,89.30
2019-05-20T06:39:51.455Z,90.10
2019-05-20T06:42:21.527Z,89.70
2019-05-20T06:44:53.904Z,89.70
2019-05-20T06:47:23.109Z,88.20
2019-05-20T06:49:53.100Z,88.40
2019-05-20T06:52:35.422Z,88.00
2019-05-20T06:54:55.748Z,88.30
2019-05-20T06:57:25.733Z,87.90
2019-05-20T06:59:55.789Z,86.90
2019-05-20T07:02:26.880Z,86.90
2019-05-20T07:04:56.839Z,86.70
2019-05-20T07:07:26.826Z,86.80
2019-05-20T07:09:56.776Z,86.50
2019-05-20T07:14:58.361Z,85.90
2019-05-20T07:16:48.633Z,86.30
2019-05-20T07:17:28.496Z,85.40
2019-05-20T07:19:58.557Z,85.20
2019-05-20T07:22:28.526Z,85.30
2019-05-20T07:24:58.595Z,85.40
2019-05-20T07:27:28.586Z,84.60
2019-05-20T07:29:58.540Z,84.20
2019-05-20T07:32:28.546Z,83.30
2019-05-20T07:34:58.498Z,83.50
2019-05-20T07:37:28.503Z,83.70
2019-05-20T07:39:58.481Z,82.20
2019-05-20T07:42:28.440Z,82.20
2019-05-20T07:44:59.532Z,82.70
2019-05-20T07:47:29.768Z,82.50
2019-05-20T07:50:00.096Z,82.40
2019-05-20T07:52:30.227Z,82.30
2019-05-20T07:55:00.932Z,82.20
2019-05-20T07:57:34.320Z,81.50
2019-05-20T08:00:05.910Z,80.50
2019-05-20T08:02:36.383Z,80.60
2019-05-20T08:05:07.692Z,80.30
2019-05-20T08:07:51.300Z,79.30
2019-05-20T08:10:09.579Z,78.80
2019-05-20T08:12:39.587Z,79.40
2019-05-20T08:15:10.811Z,79.50
2019-05-20T08:17:40.797Z,78.60
2019-05-20T08:20:10.954Z,78.00
2019-05-20T08:22:40.910Z,78.00
2019-05-20T08:25:10.946Z,78.30
2019-05-20T08:27:40.913Z,77.10
2019-05-20T08:30:13.989Z,77.20
2019-05-20T08:32:43.346Z,76.30
2019-05-20T08:35:13.784Z,76.70
2019-05-20T08:37:45.619Z,74.30
2019-05-20T08:40:15.517Z,74.20
2019-05-20T08:42:45.463Z,72.40
2019-05-20T08:45:16.326Z,73.00
2019-05-20T08:47:46.277Z,71.40
2019-05-20T08:50:16.570Z,72.50
2019-05-20T08:52:46.601Z,72.20
2019-05-20T08:55:16.766Z,72.20
2019-05-20T08:57:46.914Z,71.50
2019-05-20T09:00:23.980Z,69.60
2019-05-20T09:02:54.106Z,70.00
2019-05-20T09:05:27.681Z,70.30
2019-05-20T09:08:03.138Z,68.60
2019-05-20T09:10:27.299Z,67.00
2019-05-20T09:12:58.769Z,66.80
2019-05-20T09:15:28.966Z,66.70
2019-05-20T09:18:00.183Z,65.90
2019-05-20T09:20:30.331Z,64.80
2019-05-20T09:23:02.678Z,65.70
2019-05-20T09:25:33.000Z,64.50
2019-05-20T09:28:02.992Z,64.90
2019-05-20T09:30:33.117Z,65.40
2019-05-20T09:33:03.385Z,64.00
2019-05-20T09:35:33.555Z,64.20
2019-05-20T09:38:17.753Z,62.80
2019-05-20T09:40:38.041Z,63.10
2019-05-20T09:43:08.262Z,62.90
2019-05-20T09:45:39.206Z,62.80
2019-05-20T09:48:09.637Z,63.90
2019-05-20T09:50:39.848Z,63.40
2019-05-20T09:53:09.819Z,62.40
2019-05-20T09:55:40.921Z,63.70
2019-05-20T09:58:10.975Z,63.20
2019-05-20T10:00:40.952Z,62.30
2019-05-20T10:03:12.023Z,61.40
2019-05-20T10:05:41.989Z,62.40
2019-05-20T10:08:11.981Z,61.40
2019-05-20T10:10:41.962Z,60.40
2019-05-20T10:13:12.013Z,61.50
2019-05-20T10:15:42.108Z,60.70
2019-05-20T10:18:12.074Z,59.60
2019-05-20T10:20:42.046Z,58.80
2019-05-20T10:23:15.600Z,56.50
2019-05-20T10:25:43.695Z,56.10
2019-05-20T10:28:13.640Z,56.20
2019-05-20T10:30:43.670Z,55.20
2019-05-20T10:33:13.615Z,54.90
2019-05-20T10:35:43.606Z,54.30
2019-05-20T10:38:13.628Z,54.50
2019-05-20T10:40:43.676Z,54.90
2019-05-20T10:43:13.796Z,53.60
2019-05-20T10:45:43.951Z,53.90
2019-05-20T10:48:13.955Z,53.80
2019-05-20T10:50:44.081Z,54.40
2019-05-20T10:53:14.097Z,53.90
2019-05-20T10:55:44.317Z,54.40
2019-05-20T10:58:14.310Z,54.40
2019-05-20T11:01:01.156Z,55.20
2019-05-20T11:03:15.909Z,54.10
2019-05-20T11:05:45.871Z,53.90
2019-05-20T11:08:15.934Z,54.10
2019-05-20T11:10:45.969Z,54.30
2019-05-20T11:13:15.957Z,54.90
2019-05-20T11:15:45.941Z,55.10
2019-05-20T11:18:15.926Z,55.30
2019-05-20T11:20:45.973Z,55.50
2019-05-20T11:23:15.942Z,55.60
2019-05-20T11:25:45.896Z,55.20
2019-05-20T11:28:17.338Z,56.60
2019-05-20T11:30:47.410Z,57.60
2019-05-20T11:33:17.377Z,57.50
2019-05-20T11:35:47.750Z,58.70
2019-05-20T11:38:17.866Z,58.80
2019-05-20T11:40:47.975Z,58.80
2019-05-20T11:43:17.936Z,59.60
2019-05-20T11:45:47.916Z,58.80
2019-05-20T11:48:17.891Z,59.30
2019-05-20T11:50:47.895Z,59.80
2019-05-20T11:53:17.861Z,59.90
2019-05-20T11:55:47.922Z,60.90
2019-05-20T11:58:17.902Z,61.50
2019-05-20T12:00:48.054Z,61.00
2019-05-20T12:03:18.044Z,61.50
2019-05-20T12:05:48.296Z,61.60
2019-05-20T12:08:18.478Z,61.10
2019-05-20T12:10:48.550Z,61.10
2019-05-20T12:13:18.521Z,62.40
2019-05-20T12:15:48.523Z,62.20
2019-05-20T12:18:18.549Z,61.50
2019-05-20T12:20:48.554Z,62.10
2019-05-20T12:23:18.598Z,61.80
2019-05-20T12:25:48.589Z,61.80
2019-05-20T12:28:18.567Z,62.20
2019-05-20T12:30:48.579Z,61.60
2019-05-20T12:33:19.655Z,60.10
2019-05-20T12:35:49.963Z,59.80
2019-05-20T12:38:19.936Z,59.60
2019-05-20T12:40:49.963Z,58.90
2019-05-20T12:43:20.371Z,58.60
2019-05-20T12:45:50.379Z,57.40
2019-05-20T12:48:20.346Z,56.80
2019-05-20T12:50:50.335Z,55.00
2019-05-20T12:53:20.391Z,52.60
2019-05-20T12:55:50.288Z,52.90
2019-05-20T12:58:20.286Z,53.20
2019-05-20T13:00:51.575Z,51.90
2019-05-20T13:03:22.120Z,51.90
2019-05-20T13:05:52.390Z,49.90
2019-05-20T13:08:22.338Z,49.20
2019-05-20T13:10:52.415Z,49.50
2019-05-20T13:13:22.379Z,49.30
2019-05-20T13:15:52.378Z,50.50
2019-05-20T13:18:22.340Z,51.40
2019-05-20T13:20:52.335Z,52.10
2019-05-20T13:23:22.334Z,52.60
2019-05-20T13:25:52.337Z,53.20
2019-05-20T13:28:22.318Z,55.20
2019-05-20T13:30:53.134Z,54.50
2019-05-20T13:33:23.116Z,55.80
2019-05-20T13:35:53.214Z,56.00
2019-05-20T13:38:23.453Z,56.00
2019-05-20T13:40:53.378Z,56.60
2019-05-20T13:43:23.362Z,56.80
2019-05-20T13:45:53.323Z,57.60
2019-05-20T13:48:23.333Z,57.40
2019-05-20T13:50:53.329Z,58.00
2019-05-20T13:53:23.275Z,58.50
2019-05-20T13:55:53.264Z,59.20
2019-05-20T13:58:23.340Z,59.30
2019-05-20T14:00:53.287Z,59.20
2019-05-20T14:03:23.269Z,59.80
2019-05-20T14:05:53.377Z,61.00
2019-05-20T14:08:23.332Z,61.60
2019-05-20T14:11:03.767Z,61.70
2019-05-20T14:13:25.003Z,62.60
2019-05-20T14:15:55.009Z,63.40
2019-05-20T14:18:25.047Z,64.10
2019-05-20T14:20:55.048Z,64.60
2019-05-20T14:23:25.015Z,64.90
2019-05-20T14:25:55.041Z,66.80
2019-05-20T14:28:25.004Z,68.90
2019-05-20T14:30:55.169Z,70.60
2019-05-20T14:33:25.445Z,73.40
2019-05-20T14:35:55.672Z,74.10
2019-05-20T14:38:26.023Z,75.50
2019-05-20T14:40:56.036Z,76.80
2019-05-20T14:43:26.163Z,78.40
2019-05-20T14:45:56.467Z,78.30
2019-05-20T14:48:26.642Z,78.30
2019-05-20T14:50:56.767Z,80.10
2019-05-20T14:53:26.970Z,82.00
2019-05-20T14:55:58.131Z,82.70
2019-05-20T14:58:28.264Z,82.70
2019-05-20T15:00:58.304Z,83.70
2019-05-20T15:03:28.554Z,83.60
2019-05-20T15:05:58.807Z,86.80
2019-05-20T15:08:30.465Z,88.50
2019-05-20T15:11:00.609Z,87.90
2019-05-20T15:13:31.152Z,87.80
2019-05-20T15:16:01.579Z,88.00
2019-05-20T15:18:32.222Z,87.70
2019-05-20T15:21:02.434Z,89.50
2019-05-20T15:23:34.080Z,90.00
2019-05-20T15:26:04.815Z,89.80
2019-05-20T15:28:35.469Z,88.80
2019-05-20T15:31:06.029Z,87.20
2019-05-20T15:33:36.501Z,88.20
2019-05-20T15:36:07.336Z,87.60
2019-05-20T15:38:38.074Z,87.80
2019-05-20T15:41:08.885Z,88.40
2019-05-20T15:43:40.496Z,88.80
2019-05-20T15:46:11.190Z,88.30
2019-05-20T15:48:43.257Z,88.10
2019-05-20T15:52:53.136Z,87.10
2019-05-20T15:55:25.483Z,90.00
2019-05-20T15:57:56.209Z,90.00
2019-05-20T16:00:26.840Z,89.40
2019-05-20T16:02:57.933Z,89.40
2019-05-20T16:05:29.448Z,88.30
2019-05-20T16:08:00.064Z,88.30
2019-05-20T16:10:31.310Z,88.60
2019-05-20T16:13:01.846Z,88.50
2019-05-20T16:15:32.465Z,88.70
2019-05-20T16:18:04.460Z,87.90
2019-05-20T16:20:35.161Z,87.40
2019-05-20T16:23:05.790Z,87.90
2019-05-20T16:25:38.024Z,87.80
2019-05-20T16:28:10.682Z,87.70
2019-05-20T16:30:42.503Z,87.90
2019-05-20T16:33:13.125Z,87.50
2019-05-20T16:35:43.762Z,88.90
2019-05-20T16:38:14.490Z,88.70
2019-05-20T16:40:45.265Z,89.80
2019-05-20T16:43:17.178Z,89.30
2019-05-20T16:45:48.063Z,89.30
2019-05-20T16:48:20.187Z,90.00
2019-05-20T16:50:50.818Z,89.70
2019-05-20T16:53:21.454Z,89.40
2019-05-20T16:55:52.181Z,89.70
2019-05-20T16:58:23.217Z,89.90
2019-05-20T17:00:57.136Z,89.00
2019-05-20T17:03:27.366Z,89.20
2019-05-20T17:05:59.996Z,88.50
2019-05-20T17:08:30.963Z,88.40
2019-05-20T17:13:52.238Z,88.20
2019-05-20T17:16:24.256Z,88.10
2019-05-20T17:18:54.897Z,88.00
2019-05-20T17:21:26.642Z,88.60
2019-05-20T17:23:59.527Z,88.60
2019-05-20T17:26:30.260Z,87.80
2019-05-20T17:29:05.082Z,88.50
2019-05-20T17:31:38.279Z,88.60
2019-05-20T17:34:19.867Z,88.40
2019-05-20T17:36:52.133Z,88.80
2019-05-20T17:39:23.249Z,89.30
2019-05-20T17:41:56.154Z,89.30
2019-05-20T17:45:24.753Z,88.30
2019-05-20T17:47:58.149Z,89.70
2019-05-20T17:50:28.882Z,89.40
2019-05-20T17:53:00.983Z,89.90
2019-05-20T17:55:31.783Z,90.00
2019-05-20T17:58:14.596Z,89.50
2019-05-20T18:00:45.279Z,90.00
2019-05-20T18:03:18.414Z,90.00
2019-05-20T18:05:50.595Z,90.00
2019-05-20T18:08:25.042Z,90.30
2019-05-20T18:10:55.771Z,90.30
2019-05-20T18:13:28.106Z,90.00
2019-05-20T18:16:00.679Z,90.10
2019-05-20T18:18:31.420Z,90.40
2019-05-20T18:21:03.415Z,90.60
2019-05-20T18:23:34.110Z,90.50
2019-05-20T18:26:06.126Z,90.50
2019-05-20T18:28:39.057Z,90.50
2019-05-20T18:31:09.946Z,90.70
2019-05-20T18:33:40.729Z,90.40
2019-05-20T18:36:13.308Z,90.70
2019-05-20T18:38:48.697Z,90.80
2019-05-20T18:41:17.229Z,91.10
2019-05-20T18:43:48.222Z,91.30
2019-05-20T18:46:20.989Z,91.20
2019-05-20T18:48:52.188Z,91.60
2019-05-20T18:51:24.048Z,91.40
2019-05-20T18:53:54.828Z,91.50
2019-05-20T18:56:29.013Z,91.50
2019-05-20T18:59:01.532Z,91.80
2019-05-20T19:01:45.756Z,92.10
2019-05-20T19:04:05.947Z,92.20
2019-05-20T19:06:37.253Z,92.20
2019-05-20T19:09:08.702Z,92.30
2019-05-20T19:11:43.277Z,92.60
2019-05-20T19:14:14.210Z,92.70
2019-05-20T19:16:44.790Z,92.70
2019-05-20T19:19:15.831Z,92.70
2019-05-20T19:21:50.323Z,92.60
2019-05-20T19:24:22.008Z,92.70
2019-05-20T19:26:52.746Z,92.70
2019-05-20T19:29:23.398Z,92.80
2019-05-20T19:32:01.467Z,92.80
2019-05-20T19:34:26.475Z,92.70
2019-05-20T19:36:57.522Z,92.60
2019-05-20T19:39:28.863Z,92.80
2019-05-20T19:42:01.607Z,93.00
2019-05-20T19:44:33.503Z,93.20
2019-05-20T19:47:04.337Z,93.20
2019-05-20T19:49:36.506Z,93.20
2019-05-20T19:52:08.160Z,93.40
2019-05-20T19:54:38.993Z,93.40
2019-05-20T19:57:09.626Z,93.10
2019-05-20T19:59:42.406Z,93.40
2019-05-20T20:02:17.269Z,93.60
2019-05-20T20:04:45.514Z,93.40
2019-05-20T20:07:17.820Z,93.50
2019-05-20T20:09:48.513Z,93.50
2019-05-20T20:12:20.819Z,93.70
2019-05-20T20:14:53.460Z,93.50
2019-05-20T20:17:27.796Z,93.60
2019-05-20T20:19:58.610Z,93.50
2019-05-20T20:22:29.140Z,93.30
2019-05-20T20:24:59.872Z,93.40
2019-05-20T20:27:30.468Z,93.40
2019-05-20T20:30:00.848Z,93.30
2019-05-20T20:32:37.814Z,93.50
2019-05-20T20:35:03.985Z,93.50
2019-05-20T20:37:34.742Z,93.50
2019-05-20T20:40:06.302Z,93.10
2019-05-20T20:42:36.846Z,93.40
2019-05-20T20:45:07.581Z,93.30
2019-05-20T20:47:42.436Z,93.60
2019-05-20T20:50:12.121Z,93.70
2019-05-20T20:52:43.975Z,93.80
2019-05-20T20:55:14.512Z,93.70
2019-05-20T20:57:45.237Z,94.00
2019-05-20T21:00:16.434Z,93.80
2019-05-20T21:02:53.158Z,93.80
2019-05-20T21:05:19.688Z,93.90
2019-05-20T21:07:51.779Z,93.80
2019-05-20T21:10:22.520Z,93.60
2019-05-20T21:12:53.103Z,93.60
2019-05-20T21:15:23.448Z,93.60
2019-05-20T21:17:53.834Z,93.40
2019-05-20T21:20:24.094Z,93.80
2019-05-20T21:22:54.154Z,93.70
2019-05-20T21:25:24.562Z,93.70
2019-05-20T21:27:55.048Z,93.70
